Presidente Olegario, Brazil
Current Conditions -  °F | °C
As of 7:00 AM on Saturday 22 Nov 2014 (Local Time) from SBUL Reporting Station
Clear Clear  
Wind Chill: 70°   Ceiling: Unl
Heat Index: 70°   Visibility: 6mi
Dew Point: 59°   Wind: 5mph
Humidity: 68%   Direction: 350°N
Pressure: 30.03"   Gusts: NA
Location:  18.42°S, 46.42°W
Report Text: SBUL 220900Z 35004KT CAVOK 21/15 Q1017
Loading
Personal Weather Stations






























Interactive Weather Map New forecast layout! Learn more

10-Day Weather Forecast

Advertisements
Track Severe Weather on mobile